NR76G KPGA-KGCN
Flight info
| Callsign | NR76G |
|---|---|
| Flight time | N/A |
| Altitude | 8500 |
| Route | TBC |
| Aircraft | B36T/L-L/C |
Departure
| Time | 2026-04-21 17:27 |
|---|---|
| Airport | Page Municipal Airport (KPGA) |
Arrival
| Time | N/A |
|---|---|
| Airport | Grand Canyon National Park Airport (KGCN) |
| Time | Latitude | Longitude | Altitude | Speed | Heading |
|---|---|---|---|---|---|
| 2026-04-21 17:14 | 36.92770 | -111.45134 | 4273 ft | 0 kts | 83° |
| 2026-04-21 17:22 | 36.92774 | -111.45113 | 4261 ft | 5 kts | 56° |
| 2026-04-21 17:23 | 36.92820 | -111.45105 | 4264 ft | 1 kts | 30° |
| 2026-04-21 17:23 | 36.92836 | -111.45063 | 4264 ft | 10 kts | 77° |
| 2026-04-21 17:23 | 36.92863 | -111.44975 | 4262 ft | 10 kts | 13° |
| 2026-04-21 17:23 | 36.92958 | -111.44991 | 4265 ft | 17 kts | 352° |
| 2026-04-21 17:24 | 36.93098 | -111.45020 | 4265 ft | 23 kts | 350° |
| 2026-04-21 17:24 | 36.93145 | -111.45031 | 4265 ft | 0 kts | 348° |
| 2026-04-21 17:24 | 36.93169 | -111.45038 | 4265 ft | 8 kts | 345° |
| 2026-04-21 17:24 | 36.93246 | -111.45052 | 4265 ft | 9 kts | 6° |
| 2026-04-21 17:25 | 36.93269 | -111.45017 | 4265 ft | 0 kts | 83° |
| 2026-04-21 17:25 | 36.93271 | -111.45005 | 4265 ft | 5 kts | 81° |
| 2026-04-21 17:25 | 36.93246 | -111.44948 | 4265 ft | 2 kts | 169° |
| 2026-04-21 17:26 | 36.93117 | -111.44917 | 4266 ft | 43 kts | 167° |
| 2026-04-21 17:26 | 36.92676 | -111.44820 | 4265 ft | 86 kts | 169° |
| 2026-04-21 17:26 | 36.91988 | -111.44667 | 4364 ft | 107 kts | 169° |
| 2026-04-21 17:27 | 36.91213 | -111.44481 | 4733 ft | 116 kts | 167° |
| 2026-04-21 17:27 | 36.90424 | -111.44264 | 5142 ft | 121 kts | 172° |
| 2026-04-21 17:27 | 36.89648 | -111.44459 | 5642 ft | 112 kts | 205° |
| 2026-04-21 17:27 | 36.88939 | -111.44918 | 5797 ft | 114 kts | 206° |
| 2026-04-21 17:28 | 36.88274 | -111.45394 | 5960 ft | 108 kts | 204° |
| 2026-04-21 17:28 | 36.87582 | -111.45221 | 5918 ft | 120 kts | 134° |
| 2026-04-21 17:28 | 36.87157 | -111.44278 | 5936 ft | 123 kts | 143° |
| 2026-04-21 17:28 | 36.86356 | -111.44250 | 6041 ft | 117 kts | 194° |
| 2026-04-21 17:29 | 36.85566 | -111.44261 | 6128 ft | 115 kts | 185° |
| 2026-04-21 17:29 | 36.84798 | -111.44413 | 6325 ft | 109 kts | 187° |
| 2026-04-21 17:29 | 36.84071 | -111.44520 | 6475 ft | 103 kts | 192° |
| 2026-04-21 17:29 | 36.83372 | -111.44771 | 6556 ft | 106 kts | 185° |
| 2026-04-21 17:30 | 36.82630 | -111.44767 | 6599 ft | 113 kts | 175° |
| 2026-04-21 17:30 | 36.81902 | -111.44494 | 6755 ft | 107 kts | 153° |
| 2026-04-21 17:30 | 36.81208 | -111.44140 | 6781 ft | 110 kts | 168° |
| 2026-04-21 17:30 | 36.80474 | -111.44085 | 6928 ft | 105 kts | 188° |
| 2026-04-21 17:31 | 36.79762 | -111.44277 | 7017 ft | 103 kts | 167° |
| 2026-04-21 17:31 | 36.79361 | -111.43437 | 6963 ft | 127 kts | 111° |
| 2026-04-21 17:31 | 36.79142 | -111.42439 | 7110 ft | 124 kts | 112° |
| 2026-04-21 17:31 | 36.79021 | -111.41352 | 7206 ft | 124 kts | 105° |
| 2026-04-21 17:32 | 36.79044 | -111.40624 | 7228 ft | 138 kts | 76° |
| 2026-04-21 17:32 | 36.78966 | -111.39289 | 7465 ft | 108 kts | 136° |
| 2026-04-21 17:32 | 36.78330 | -111.38890 | 7459 ft | 107 kts | 183° |
| 2026-04-21 17:32 | 36.77791 | -111.39463 | 7578 ft | 115 kts | 242° |
| 2026-04-21 17:33 | 36.77588 | -111.40458 | 7693 ft | 115 kts | 248° |
| 2026-04-21 17:33 | 36.77382 | -111.41353 | 7950 ft | 102 kts | 242° |
| 2026-04-21 17:33 | 36.77164 | -111.42241 | 8019 ft | 112 kts | 244° |
| 2026-04-21 17:33 | 36.76899 | -111.43182 | 8021 ft | 121 kts | 243° |
| 2026-04-21 17:34 | 36.76642 | -111.44188 | 8093 ft | 122 kts | 243° |
| 2026-04-21 17:34 | 36.76343 | -111.45184 | 8155 ft | 121 kts | 231° |
| 2026-04-21 17:34 | 36.75647 | -111.45616 | 8195 ft | 117 kts | 180° |
| 2026-04-21 17:34 | 36.74840 | -111.45535 | 8286 ft | 116 kts | 178° |
| 2026-04-21 17:35 | 36.74047 | -111.45450 | 8390 ft | 115 kts | 177° |
| 2026-04-21 17:35 | 36.73234 | -111.45370 | 8389 ft | 119 kts | 178° |
| 2026-04-21 17:35 | 36.72395 | -111.45292 | 8394 ft | 123 kts | 179° |
| 2026-04-21 17:35 | 36.71533 | -111.45194 | 8391 ft | 126 kts | 178° |
| 2026-04-21 17:36 | 36.70655 | -111.45096 | 8391 ft | 127 kts | 178° |
| 2026-04-21 17:36 | 36.69766 | -111.45002 | 8379 ft | 129 kts | 178° |
| 2026-04-21 17:36 | 36.68870 | -111.44908 | 8375 ft | 129 kts | 178° |
| 2026-04-21 17:36 | 36.67975 | -111.44814 | 8371 ft | 129 kts | 178° |
| 2026-04-21 17:37 | 36.67086 | -111.44720 | 8368 ft | 128 kts | 177° |
| 2026-04-21 17:37 | 36.66191 | -111.44626 | 8353 ft | 130 kts | 178° |
| 2026-04-21 17:37 | 36.65580 | -111.44567 | 8349 ft | 130 kts | 178° |
| 2026-04-21 17:37 | 36.64683 | -111.44479 | 8342 ft | 128 kts | 178° |
| 2026-04-21 17:38 | 36.63795 | -111.44399 | 8335 ft | 128 kts | 178° |
| 2026-04-21 17:38 | 36.62914 | -111.44310 | 8331 ft | 126 kts | 178° |
| 2026-04-21 17:38 | 36.62042 | -111.44223 | 8330 ft | 127 kts | 178° |
| 2026-04-21 17:38 | 36.61161 | -111.44131 | 8325 ft | 127 kts | 177° |
| 2026-04-21 17:39 | 36.60309 | -111.43820 | 8319 ft | 129 kts | 163° |
| 2026-04-21 17:39 | 36.59471 | -111.43417 | 8317 ft | 130 kts | 163° |
| 2026-04-21 17:39 | 36.58624 | -111.43022 | 8312 ft | 131 kts | 162° |
| 2026-04-21 17:39 | 36.57869 | -111.42366 | 8308 ft | 134 kts | 146° |
| 2026-04-21 17:40 | 36.57176 | -111.41590 | 8303 ft | 135 kts | 140° |
| 2026-04-21 17:40 | 36.56614 | -111.40643 | 8304 ft | 137 kts | 133° |
| 2026-04-21 17:40 | 36.56051 | -111.39697 | 8306 ft | 134 kts | 141° |
| 2026-04-21 17:40 | 36.55253 | -111.39246 | 8308 ft | 126 kts | 171° |
| 2026-04-21 17:41 | 36.54393 | -111.38988 | 8310 ft | 128 kts | 170° |
| 2026-04-21 17:41 | 36.53526 | -111.38716 | 8310 ft | 129 kts | 170° |
| 2026-04-21 17:41 | 36.52665 | -111.38440 | 8311 ft | 127 kts | 169° |
| 2026-04-21 17:41 | 36.51811 | -111.38173 | 8313 ft | 126 kts | 170° |
| 2026-04-21 17:42 | 36.50946 | -111.37916 | 8314 ft | 129 kts | 170° |
| 2026-04-21 17:42 | 36.50072 | -111.37646 | 8318 ft | 129 kts | 170° |
| 2026-04-21 17:42 | 36.49190 | -111.37430 | 8322 ft | 126 kts | 178° |
| 2026-04-21 17:42 | 36.48311 | -111.37391 | 8323 ft | 127 kts | 181° |
| 2026-04-21 17:43 | 36.47433 | -111.37226 | 8322 ft | 130 kts | 164° |
| 2026-04-21 17:43 | 36.46602 | -111.36791 | 8323 ft | 129 kts | 163° |
| 2026-04-21 17:43 | 36.45774 | -111.36364 | 8326 ft | 129 kts | 162° |
| 2026-04-21 17:43 | 36.44934 | -111.35956 | 8326 ft | 131 kts | 163° |
| 2026-04-21 17:44 | 36.44084 | -111.35544 | 8326 ft | 131 kts | 163° |
| 2026-04-21 17:44 | 36.43237 | -111.35112 | 8326 ft | 132 kts | 162° |
| 2026-04-21 17:44 | 36.42390 | -111.34682 | 8327 ft | 132 kts | 162° |
| 2026-04-21 17:44 | 36.41537 | -111.34259 | 8330 ft | 132 kts | 163° |
| 2026-04-21 17:45 | 36.40687 | -111.33839 | 8328 ft | 132 kts | 162° |
| 2026-04-21 17:45 | 36.39834 | -111.33422 | 8327 ft | 132 kts | 162° |
| 2026-04-21 17:45 | 36.38979 | -111.33009 | 8326 ft | 132 kts | 163° |
| 2026-04-21 17:45 | 36.38130 | -111.32591 | 8326 ft | 131 kts | 163° |
| 2026-04-21 17:46 | 36.37280 | -111.32174 | 8329 ft | 131 kts | 162° |
| 2026-04-21 17:46 | 36.36424 | -111.31757 | 8329 ft | 133 kts | 163° |
| 2026-04-21 17:46 | 36.35565 | -111.31336 | 8327 ft | 133 kts | 163° |
| 2026-04-21 17:46 | 36.34706 | -111.30919 | 8328 ft | 132 kts | 163° |
| 2026-04-21 17:47 | 36.33861 | -111.30497 | 8330 ft | 131 kts | 162° |
| 2026-04-21 17:47 | 36.33011 | -111.30084 | 8327 ft | 131 kts | 163° |
| 2026-04-21 17:47 | 36.32158 | -111.29683 | 8326 ft | 131 kts | 162° |
| 2026-04-21 17:47 | 36.31308 | -111.29277 | 8327 ft | 131 kts | 162° |
| 2026-04-21 17:48 | 36.30746 | -111.29001 | 8327 ft | 131 kts | 162° |
| 2026-04-21 17:48 | 36.29609 | -111.28457 | 8329 ft | 131 kts | 162° |
| 2026-04-21 17:48 | 36.28764 | -111.28051 | 8326 ft | 130 kts | 162° |
| 2026-04-21 17:48 | 36.27927 | -111.27633 | 8326 ft | 130 kts | 162° |
| 2026-04-21 17:49 | 36.27083 | -111.27225 | 8337 ft | 131 kts | 162° |
| 2026-04-21 17:49 | 36.26235 | -111.26812 | 8341 ft | 131 kts | 163° |
| 2026-04-21 17:49 | 36.25388 | -111.26400 | 8341 ft | 131 kts | 162° |
| 2026-04-21 17:49 | 36.24537 | -111.25988 | 8329 ft | 131 kts | 161° |
| 2026-04-21 17:50 | 36.23684 | -111.25581 | 8325 ft | 132 kts | 163° |
| 2026-04-21 17:50 | 36.22832 | -111.25164 | 8328 ft | 132 kts | 163° |
| 2026-04-21 17:50 | 36.21971 | -111.24745 | 8327 ft | 133 kts | 162° |
| 2026-04-21 17:50 | 36.21092 | -111.24327 | 8325 ft | 133 kts | 162° |
| 2026-04-21 17:51 | 36.20213 | -111.24269 | 8322 ft | 129 kts | 204° |
| 2026-04-21 17:51 | 36.19481 | -111.24924 | 8326 ft | 130 kts | 213° |
| 2026-04-21 17:51 | 36.18745 | -111.25578 | 8329 ft | 130 kts | 213° |
| 2026-04-21 17:51 | 36.18009 | -111.26236 | 8329 ft | 131 kts | 213° |
| 2026-04-21 17:52 | 36.17275 | -111.26894 | 8330 ft | 130 kts | 213° |
| 2026-04-21 17:52 | 36.16541 | -111.27550 | 8322 ft | 130 kts | 214° |
| 2026-04-21 17:52 | 36.15805 | -111.28208 | 8324 ft | 131 kts | 213° |
| 2026-04-21 17:52 | 36.15060 | -111.28876 | 8324 ft | 133 kts | 213° |
| 2026-04-21 17:53 | 36.14314 | -111.29544 | 8320 ft | 131 kts | 213° |
| 2026-04-21 17:53 | 36.13579 | -111.30202 | 8320 ft | 130 kts | 214° |
| 2026-04-21 17:53 | 36.12849 | -111.30856 | 8323 ft | 130 kts | 213° |
| 2026-04-21 17:53 | 36.12113 | -111.31515 | 8320 ft | 131 kts | 213° |
| 2026-04-21 17:54 | 36.11376 | -111.32175 | 8316 ft | 130 kts | 213° |
| 2026-04-21 17:54 | 36.10648 | -111.32826 | 8317 ft | 129 kts | 214° |
| 2026-04-21 17:54 | 36.09923 | -111.33475 | 8318 ft | 129 kts | 214° |
| 2026-04-21 17:54 | 36.09199 | -111.34123 | 8315 ft | 128 kts | 213° |
| 2026-04-21 17:55 | 36.08477 | -111.34769 | 8313 ft | 129 kts | 214° |
| 2026-04-21 17:55 | 36.07753 | -111.35417 | 8309 ft | 128 kts | 213° |
| 2026-04-21 17:55 | 36.07032 | -111.36068 | 8314 ft | 129 kts | 215° |
| 2026-04-21 17:55 | 36.06413 | -111.36885 | 8311 ft | 131 kts | 229° |
| 2026-04-21 17:56 | 36.05981 | -111.37881 | 8307 ft | 134 kts | 250° |
| 2026-04-21 17:56 | 36.05778 | -111.39008 | 8308 ft | 134 kts | 251° |
| 2026-04-21 17:56 | 36.05604 | -111.40135 | 8306 ft | 133 kts | 253° |
| 2026-04-21 17:56 | 36.05446 | -111.41253 | 8300 ft | 132 kts | 254° |
| 2026-04-21 17:57 | 36.05296 | -111.42378 | 8299 ft | 133 kts | 255° |
| 2026-04-21 17:57 | 36.05152 | -111.43501 | 8301 ft | 132 kts | 255° |
| 2026-04-21 17:57 | 36.05007 | -111.44636 | 8304 ft | 132 kts | 254° |
| 2026-04-21 17:57 | 36.04860 | -111.45772 | 8305 ft | 134 kts | 254° |
| 2026-04-21 17:58 | 36.04716 | -111.46897 | 8305 ft | 134 kts | 255° |
| 2026-04-21 17:58 | 36.04569 | -111.48042 | 8305 ft | 133 kts | 255° |
| 2026-04-21 17:58 | 36.04424 | -111.49175 | 8305 ft | 133 kts | 255° |
| 2026-04-21 17:58 | 36.04279 | -111.50310 | 8307 ft | 134 kts | 255° |
| 2026-04-21 17:59 | 36.04134 | -111.51443 | 8305 ft | 133 kts | 255° |
| 2026-04-21 17:59 | 36.03988 | -111.52574 | 8303 ft | 133 kts | 255° |
| 2026-04-21 17:59 | 36.03843 | -111.53710 | 8260 ft | 136 kts | 255° |
| 2026-04-21 17:59 | 36.03696 | -111.54856 | 8257 ft | 134 kts | 255° |
| 2026-04-21 18:00 | 36.03550 | -111.55993 | 8259 ft | 133 kts | 255° |
| 2026-04-21 18:00 | 36.03406 | -111.57117 | 8256 ft | 131 kts | 255° |
| 2026-04-21 18:00 | 36.03264 | -111.58223 | 8258 ft | 130 kts | 254° |
| 2026-04-21 18:00 | 36.03120 | -111.59341 | 8255 ft | 133 kts | 255° |
| 2026-04-21 18:01 | 36.02976 | -111.60467 | 8255 ft | 132 kts | 255° |
| 2026-04-21 18:01 | 36.02835 | -111.61581 | 8253 ft | 129 kts | 255° |
| 2026-04-21 18:01 | 36.02696 | -111.62670 | 8256 ft | 128 kts | 254° |
| 2026-04-21 18:01 | 36.02554 | -111.63757 | 8256 ft | 128 kts | 255° |
| 2026-04-21 18:02 | 36.02415 | -111.64845 | 8256 ft | 128 kts | 255° |
| 2026-04-21 18:02 | 36.02276 | -111.65932 | 8259 ft | 128 kts | 254° |
| 2026-04-21 18:02 | 36.02136 | -111.67032 | 8264 ft | 132 kts | 255° |
| 2026-04-21 18:02 | 36.01988 | -111.68173 | 8264 ft | 138 kts | 255° |
| 2026-04-21 18:03 | 36.01841 | -111.69347 | 8264 ft | 138 kts | 255° |
| 2026-04-21 18:03 | 36.01689 | -111.70518 | 8268 ft | 138 kts | 255° |
| 2026-04-21 18:03 | 36.01539 | -111.71678 | 8270 ft | 137 kts | 254° |
| 2026-04-21 18:03 | 36.01392 | -111.72830 | 8276 ft | 135 kts | 254° |
| 2026-04-21 18:04 | 36.01245 | -111.73975 | 8286 ft | 135 kts | 255° |
| 2026-04-21 18:04 | 36.01099 | -111.75125 | 8280 ft | 136 kts | 253° |
| 2026-04-21 18:04 | 36.00956 | -111.76256 | 8301 ft | 132 kts | 254° |
| 2026-04-21 18:04 | 36.00806 | -111.77377 | 8306 ft | 132 kts | 254° |
| 2026-04-21 18:05 | 36.00664 | -111.78499 | 8318 ft | 134 kts | 254° |
| 2026-04-21 18:05 | 36.00394 | -111.79564 | 8335 ft | 129 kts | 242° |
| 2026-04-21 18:05 | 36.00070 | -111.80624 | 8344 ft | 130 kts | 244° |
| 2026-04-21 18:05 | 35.99756 | -111.81675 | 8358 ft | 131 kts | 242° |
| 2026-04-21 18:06 | 35.99436 | -111.82742 | 8366 ft | 134 kts | 243° |
| 2026-04-21 18:06 | 35.99102 | -111.83818 | 8368 ft | 135 kts | 242° |
| 2026-04-21 18:06 | 35.98778 | -111.84911 | 8382 ft | 136 kts | 242° |
| 2026-04-21 18:06 | 35.98459 | -111.85997 | 8388 ft | 134 kts | 243° |
| 2026-04-21 18:07 | 35.98119 | -111.87079 | 8394 ft | 135 kts | 242° |
| 2026-04-21 18:07 | 35.97716 | -111.88083 | 8401 ft | 129 kts | 236° |
| 2026-04-21 18:07 | 35.97255 | -111.89046 | 8395 ft | 130 kts | 233° |
| 2026-04-21 18:07 | 35.96798 | -111.89986 | 8408 ft | 127 kts | 233° |
| 2026-04-21 18:08 | 35.96339 | -111.90924 | 8417 ft | 128 kts | 233° |
| 2026-04-21 18:08 | 35.95866 | -111.91845 | 8420 ft | 126 kts | 233° |
| 2026-04-21 18:08 | 35.95397 | -111.92744 | 8438 ft | 124 kts | 233° |
| 2026-04-21 18:08 | 35.94914 | -111.93636 | 8446 ft | 126 kts | 231° |
| 2026-04-21 18:09 | 35.94420 | -111.94554 | 8449 ft | 129 kts | 233° |
| 2026-04-21 18:09 | 35.93953 | -111.95487 | 8459 ft | 129 kts | 235° |
| 2026-04-21 18:09 | 35.93637 | -111.96151 | 8465 ft | 143 kts | 234° |
| 2026-04-21 18:09 | 35.92877 | -111.97710 | 8478 ft | 171 kts | 236° |
| 2026-04-21 18:10 | 35.92222 | -111.98994 | 8488 ft | 180 kts | 233° |
| 2026-04-21 18:10 | 35.91557 | -112.00328 | 8489 ft | 184 kts | 236° |
| 2026-04-21 18:10 | 35.91111 | -112.01228 | 8494 ft | 187 kts | 235° |
| 2026-04-21 18:10 | 35.90408 | -112.02595 | 8501 ft | 190 kts | 234° |
| 2026-04-21 18:11 | 35.89702 | -112.03974 | 8501 ft | 191 kts | 234° |
| 2026-04-21 18:11 | 35.88996 | -112.05379 | 8507 ft | 191 kts | 234° |
| 2026-04-21 18:11 | 35.88298 | -112.06772 | 8514 ft | 192 kts | 234° |
| 2026-04-21 18:11 | 35.87599 | -112.08180 | 8509 ft | 194 kts | 235° |
| 2026-04-21 18:12 | 35.86898 | -112.09586 | 8508 ft | 192 kts | 234° |
| 2026-04-21 18:12 | 35.86205 | -112.10991 | 8505 ft | 191 kts | 234° |
| 2026-04-21 18:12 | 35.85514 | -112.12387 | 8289 ft | 190 kts | 234° |
| 2026-04-21 18:12 | 35.84830 | -112.13773 | 8301 ft | 189 kts | 233° |
| 2026-04-21 18:13 | 35.84172 | -112.15156 | 8295 ft | 186 kts | 235° |
| 2026-04-21 18:13 | 35.83517 | -112.16536 | 8296 ft | 187 kts | 234° |
| 2026-04-21 18:13 | 35.82864 | -112.17916 | 8299 ft | 186 kts | 234° |
| 2026-04-21 18:13 | 35.82219 | -112.19294 | 8298 ft | 186 kts | 234° |
| 2026-04-21 18:14 | 35.80940 | -112.22066 | 8303 ft | 186 kts | 234° |
| 2026-04-21 18:14 | 35.80290 | -112.23449 | 8301 ft | 188 kts | 234° |
| 2026-04-21 18:14 | 35.79620 | -112.24831 | 8300 ft | 188 kts | 234° |
| 2026-04-21 18:15 | 35.78984 | -112.26188 | 8297 ft | 174 kts | 235° |
| 2026-04-21 18:15 | 35.78422 | -112.27428 | 8291 ft | 159 kts | 234° |
| 2026-04-21 18:15 | 35.77901 | -112.28581 | 8288 ft | 149 kts | 232° |
| 2026-04-21 18:15 | 35.77334 | -112.29602 | 8288 ft | 141 kts | 229° |
| 2026-04-21 18:16 | 35.76768 | -112.30566 | 8293 ft | 137 kts | 228° |
| 2026-04-21 18:16 | 35.76226 | -112.31526 | 8291 ft | 136 kts | 233° |
| 2026-04-21 18:16 | 35.76132 | -112.32708 | 8281 ft | 153 kts | 281° |
| 2026-04-21 18:16 | 35.76879 | -112.33673 | 8277 ft | 165 kts | 330° |
| 2026-04-21 18:17 | 35.77987 | -112.33682 | 8275 ft | 159 kts | 25° |
| 2026-04-21 18:17 | 35.78699 | -112.32770 | 8282 ft | 142 kts | 79° |
| 2026-04-21 18:17 | 35.79143 | -112.31692 | 8284 ft | 146 kts | 51° |
| 2026-04-21 18:17 | 35.79907 | -112.30862 | 8287 ft | 146 kts | 44° |
| 2026-04-21 18:18 | 35.80683 | -112.30041 | 8294 ft | 148 kts | 47° |
| 2026-04-21 18:18 | 35.81474 | -112.29199 | 8302 ft | 152 kts | 45° |
| 2026-04-21 18:18 | 35.82288 | -112.28345 | 8304 ft | 156 kts | 46° |
| 2026-04-21 18:18 | 35.83118 | -112.27474 | 8307 ft | 157 kts | 45° |
| 2026-04-21 18:19 | 35.83960 | -112.26586 | 8305 ft | 157 kts | 45° |
| 2026-04-21 18:19 | 35.84795 | -112.25710 | 8306 ft | 158 kts | 46° |
| 2026-04-21 18:19 | 35.85638 | -112.24823 | 8301 ft | 159 kts | 45° |
| 2026-04-21 18:19 | 35.85812 | -112.24638 | 8300 ft | 160 kts | 46° |